sensor_id;sensor_type;location;lat;lon;timestamp;pressure;altitude;pressure_sealevel;temperature;humidity
15382;BME280;7789;51.364;12.358;2024-03-23T00:56:21;99524.81;;;12.30;100.00
15382;BME280;7789;51.364;12.358;2024-03-23T01:01:24;99524.16;;;12.28;100.00
15382;BME280;7789;51.364;12.358;2024-03-23T01:06:26;99528.75;;;12.26;100.00
15382;BME280;7789;51.364;12.358;2024-03-23T01:11:30;99516.75;;;12.24;100.00
15382;BME280;7789;51.364;12.358;2024-03-23T01:16:32;99506.78;;;12.27;100.00
15382;BME280;7789;51.364;12.358;2024-03-23T01:21:34;99497.44;;;12.25;100.00
15382;BME280;7789;51.364;12.358;2024-03-23T01:26:38;99494.47;;;12.12;100.00
15382;BME280;7789;51.364;12.358;2024-03-23T01:31:41;99480.31;;;11.97;100.00
15382;BME280;7789;51.364;12.358;2024-03-23T01:36:43;99484.34;;;11.91;100.00
15382;BME280;7789;51.364;12.358;2024-03-23T01:41:48;99471.50;;;11.80;100.00
15382;BME280;7789;51.364;12.358;2024-03-23T01:46:51;99456.88;;;11.70;100.00
15382;BME280;7789;51.364;12.358;2024-03-23T01:51:53;99457.31;;;11.57;100.00
15382;BME280;7789;51.364;12.358;2024-03-23T01:56:57;99458.56;;;11.53;100.00
15382;BME280;7789;51.364;12.358;2024-03-23T02:02:00;99466.56;;;11.52;100.00
15382;BME280;7789;51.364;12.358;2024-03-23T02:07:04;99461.19;;;11.53;100.00
15382;BME280;7789;51.364;12.358;2024-03-23T02:12:08;99452.28;;;11.46;100.00
15382;BME280;7789;51.364;12.358;2024-03-23T02:17:12;99447.69;;;11.40;100.00
15382;BME280;7789;51.364;12.358;2024-03-23T02:22:15;99444.22;;;11.40;100.00
15382;BME280;7789;51.364;12.358;2024-03-23T02:27:19;99424.38;;;11.29;100.00
15382;BME280;7789;51.364;12.358;2024-03-23T02:32:21;99418.34;;;11.29;100.00
15382;BME280;7789;51.364;12.358;2024-03-23T02:37:24;99419.63;;;11.25;100.00
15382;BME280;7789;51.364;12.358;2024-03-23T02:42:28;99412.88;;;11.22;100.00
15382;BME280;7789;51.364;12.358;2024-03-23T02:47:31;99397.13;;;11.14;100.00
15382;BME280;7789;51.364;12.358;2024-03-23T02:52:33;99402.22;;;11.16;100.00
15382;BME280;7789;51.364;12.358;2024-03-23T02:57:37;99396.34;;;11.22;100.00
15382;BME280;7789;51.364;12.358;2024-03-23T03:02:39;99378.88;;;11.22;100.00
15382;BME280;7789;51.364;12.358;2024-03-23T03:07:42;99383.59;;;11.19;100.00
15382;BME280;7789;51.364;12.358;2024-03-23T03:12:46;99373.97;;;11.19;100.00
15382;BME280;7789;51.364;12.358;2024-03-23T03:17:48;99376.72;;;11.18;100.00
15382;BME280;7789;51.364;12.358;2024-03-23T03:22:51;99354.47;;;11.14;100.00
15382;BME280;7789;51.364;12.358;2024-03-23T03:27:56;99350.00;;;11.06;100.00
15382;BME280;7789;51.364;12.358;2024-03-23T03:32:58;99337.75;;;11.07;100.00
15382;BME280;7789;51.364;12.358;2024-03-23T03:38:00;99332.34;;;11.08;100.00
15382;BME280;7789;51.364;12.358;2024-03-23T03:43:04;99315.84;;;11.08;100.00
15382;BME280;7789;51.364;12.358;2024-03-23T03:48:07;99317.59;;;11.00;100.00
15382;BME280;7789;51.364;12.358;2024-03-23T03:53:10;99300.94;;;11.01;100.00
15382;BME280;7789;51.364;12.358;2024-03-23T03:58:14;99311.88;;;11.04;100.00
15382;BME280;7789;51.364;12.358;2024-03-23T04:03:16;99316.97;;;11.05;100.00
15382;BME280;7789;51.364;12.358;2024-03-23T04:08:19;99308.81;;;11.08;100.00
15382;BME280;7789;51.364;12.358;2024-03-23T04:13:23;99302.16;;;11.14;100.00
15382;BME280;7789;51.364;12.358;2024-03-23T04:18:26;99301.84;;;11.17;100.00
15382;BME280;7789;51.364;12.358;2024-03-23T04:23:28;99248.97;;;11.05;100.00
15382;BME280;7789;51.364;12.358;2024-03-23T04:28:32;99251.59;;;11.05;100.00
15382;BME280;7789;51.364;12.358;2024-03-23T04:33:35;99223.28;;;11.01;100.00
15382;BME280;7789;51.364;12.358;2024-03-23T04:38:37;99223.16;;;11.02;100.00
15382;BME280;7789;51.364;12.358;2024-03-23T04:43:41;99211.66;;;10.96;100.00
15382;BME280;7789;51.364;12.358;2024-03-23T04:48:44;99215.44;;;11.01;100.00
15382;BME280;7789;51.364;12.358;2024-03-23T04:53:47;99211.72;;;11.03;100.00
15382;BME280;7789;51.364;12.358;2024-03-23T04:58:51;99207.28;;;11.04;100.00
15382;BME280;7789;51.364;12.358;2024-03-23T05:03:53;99178.69;;;11.02;100.00
15382;BME280;7789;51.364;12.358;2024-03-23T05:08:56;99148.28;;;11.02;100.00
15382;BME280;7789;51.364;12.358;2024-03-23T05:14:00;99128.50;;;10.99;100.00
15382;BME280;7789;51.364;12.358;2024-03-23T05:19:03;99145.31;;;10.97;100.00
15382;BME280;7789;51.364;12.358;2024-03-23T05:24:06;99129.75;;;10.87;100.00
15382;BME280;7789;51.364;12.358;2024-03-23T05:29:10;99134.63;;;10.82;100.00
15382;BME280;7789;51.364;12.358;2024-03-23T05:34:14;99144.31;;;10.90;100.00
15382;BME280;7789;51.364;12.358;2024-03-23T05:39:17;99126.00;;;10.90;100.00
15382;BME280;7789;51.364;12.358;2024-03-23T05:44:24;99123.06;;;10.93;100.00
15382;BME280;7789;51.364;12.358;2024-03-23T05:49:26;99111.44;;;10.87;100.00
15382;BME280;7789;51.364;12.358;2024-03-23T05:54:29;99071.09;;;10.82;100.00
15382;BME280;7789;51.364;12.358;2024-03-23T05:59:33;99092.50;;;10.85;100.00
15382;BME280;7789;51.364;12.358;2024-03-23T06:04:36;99104.25;;;10.81;100.00
15382;BME280;7789;51.364;12.358;2024-03-23T06:09:39;99101.31;;;10.84;100.00
15382;BME280;7789;51.364;12.358;2024-03-23T06:14:50;99073.38;;;10.85;100.00
15382;BME280;7789;51.364;12.358;2024-03-23T06:19:53;99082.22;;;10.84;100.00
15382;BME280;7789;51.364;12.358;2024-03-23T06:24:55;99045.44;;;10.85;100.00
15382;BME280;7789;51.364;12.358;2024-03-23T06:30:00;99043.63;;;10.78;100.00
15382;BME280;7789;51.364;12.358;2024-03-23T06:35:03;99032.84;;;10.81;100.00
15382;BME280;7789;51.364;12.358;2024-03-23T06:40:10;99027.47;;;10.82;100.00
15382;BME280;7789;51.364;12.358;2024-03-23T06:45:17;99010.97;;;10.82;100.00
15382;BME280;7789;51.364;12.358;2024-03-23T06:50:24;99001.47;;;10.81;100.00
15382;BME280;7789;51.364;12.358;2024-03-23T06:55:27;98984.16;;;10.80;100.00
15382;BME280;7789;51.364;12.358;2024-03-23T07:00:32;98984.47;;;10.77;100.00
15382;BME280;7789;51.364;12.358;2024-03-23T07:05:34;98972.06;;;10.71;100.00
15382;BME280;7789;51.364;12.358;2024-03-23T07:10:40;98969.78;;;10.68;100.00
15382;BME280;7789;51.364;12.358;2024-03-23T07:15:51;98984.13;;;10.64;100.00
15382;BME280;7789;51.364;12.358;2024-03-23T07:20:55;98974.81;;;10.61;100.00
15382;BME280;7789;51.364;12.358;2024-03-23T07:25:59;98933.81;;;10.54;100.00
15382;BME280;7789;51.364;12.358;2024-03-23T07:31:06;98986.03;;;10.46;100.00
15382;BME280;7789;51.364;12.358;2024-03-23T07:36:09;98990.78;;;10.42;100.00
15382;BME280;7789;51.364;12.358;2024-03-23T07:41:17;99014.81;;;9.95;100.00
15382;BME280;7789;51.364;12.358;2024-03-23T07:46:24;99031.22;;;9.79;100.00
15382;BME280;7789;51.364;12.358;2024-03-23T07:51:26;99042.84;;;9.67;100.00
15382;BME280;7789;51.364;12.358;2024-03-23T07:56:29;99055.16;;;9.32;100.00
15382;BME280;7789;51.364;12.358;2024-03-23T08:06:44;99066.78;;;8.76;100.00
15382;BME280;7789;51.364;12.358;2024-03-23T08:11:46;99057.69;;;8.62;100.00
15382;BME280;7789;51.364;12.358;2024-03-23T08:16:49;99067.06;;;8.46;100.00
15382;BME280;7789;51.364;12.358;2024-03-23T08:21:53;99093.56;;;8.32;100.00
15382;BME280;7789;51.364;12.358;2024-03-23T08:26:55;99115.69;;;8.18;100.00
15382;BME280;7789;51.364;12.358;2024-03-23T08:31:58;99127.19;;;8.06;100.00
15382;BME280;7789;51.364;12.358;2024-03-23T08:37:03;99148.19;;;7.95;100.00
15382;BME280;7789;51.364;12.358;2024-03-23T08:42:06;99184.19;;;7.81;100.00
15382;BME280;7789;51.364;12.358;2024-03-23T08:47:09;99198.03;;;7.72;100.00
15382;BME280;7789;51.364;12.358;2024-03-23T08:52:13;99218.41;;;7.67;100.00
15382;BME280;7789;51.364;12.358;2024-03-23T08:57:15;99224.31;;;7.69;100.00
15382;BME280;7789;51.364;12.358;2024-03-23T09:02:20;99231.28;;;7.68;100.00
15382;BME280;7789;51.364;12.358;2024-03-23T09:07:24;99241.69;;;7.78;100.00
15382;BME280;7789;51.364;12.358;2024-03-23T09:12:27;99256.22;;;7.80;100.00
15382;BME280;7789;51.364;12.358;2024-03-23T09:17:29;99276.75;;;7.83;100.00
15382;BME280;7789;51.364;12.358;2024-03-23T09:22:33;99255.66;;;7.96;100.00
15382;BME280;7789;51.364;12.358;2024-03-23T09:27:37;99251.00;;;7.99;100.00
15382;BME280;7789;51.364;12.358;2024-03-23T09:32:43;99247.16;;;8.13;100.00
15382;BME280;7789;51.364;12.358;2024-03-23T09:37:46;99295.84;;;8.31;100.00
15382;BME280;7789;51.364;12.358;2024-03-23T09:42:53;99324.75;;;8.28;100.00
15382;BME280;7789;51.364;12.358;2024-03-23T09:47:56;99352.44;;;8.29;100.00
15382;BME280;7789;51.364;12.358;2024-03-23T09:53:16;99344.63;;;8.29;100.00
15382;BME280;7789;51.364;12.358;2024-03-23T09:58:19;99343.66;;;8.30;100.00
15382;BME280;7789;51.364;12.358;2024-03-23T10:03:24;99360.25;;;8.29;100.00
15382;BME280;7789;51.364;12.358;2024-03-23T10:08:29;99385.84;;;8.24;100.00
15382;BME280;7789;51.364;12.358;2024-03-23T10:13:32;99414.22;;;8.27;100.00
15382;BME280;7789;51.364;12.358;2024-03-23T10:18:37;99418.72;;;8.25;100.00
15382;BME280;7789;51.364;12.358;2024-03-23T10:29:04;99451.06;;;8.23;100.00
15382;BME280;7789;51.364;12.358;2024-03-23T10:34:12;99464.91;;;8.23;100.00
15382;BME280;7789;51.364;12.358;2024-03-23T10:39:15;99472.38;;;8.17;100.00
15382;BME280;7789;51.364;12.358;2024-03-23T10:44:19;99469.41;;;8.21;100.00
15382;BME280;7789;51.364;12.358;2024-03-23T10:49:22;99480.50;;;8.23;100.00
15382;BME280;7789;51.364;12.358;2024-03-23T10:54:25;99486.69;;;8.22;100.00
15382;BME280;7789;51.364;12.358;2024-03-23T10:59:34;99499.03;;;8.30;100.00
15382;BME280;7789;51.364;12.358;2024-03-23T11:04:41;99500.47;;;8.43;100.00
15382;BME280;7789;51.364;12.358;2024-03-23T11:09:44;99505.72;;;8.62;100.00
15382;BME280;7789;51.364;12.358;2024-03-23T11:14:49;99501.88;;;8.76;100.00
15382;BME280;7789;51.364;12.358;2024-03-23T11:19:57;99503.69;;;8.94;100.00
15382;BME280;7789;51.364;12.358;2024-03-23T11:25:00;99504.78;;;9.01;100.00
15382;BME280;7789;51.364;12.358;2024-03-23T11:30:14;99498.75;;;9.19;100.00
15382;BME280;7789;51.364;12.358;2024-03-23T11:35:27;99495.44;;;9.36;100.00
15382;BME280;7789;51.364;12.358;2024-03-23T11:40:30;99500.88;;;9.52;100.00
15382;BME280;7789;51.364;12.358;2024-03-23T11:45:38;99502.06;;;9.77;100.00
15382;BME280;7789;51.364;12.358;2024-03-23T11:50:41;99488.72;;;10.26;100.00
15382;BME280;7789;51.364;12.358;2024-03-23T11:55:49;99482.28;;;10.47;100.00
15382;BME280;7789;51.364;12.358;2024-03-23T12:01:10;99470.78;;;10.40;100.00
15382;BME280;7789;51.364;12.358;2024-03-23T12:06:19;99460.34;;;10.58;100.00
15382;BME280;7789;51.364;12.358;2024-03-23T12:11:21;99461.31;;;10.57;100.00
15382;BME280;7789;51.364;12.358;2024-03-23T12:16:26;99458.28;;;10.61;100.00
15382;BME280;7789;51.364;12.358;2024-03-23T12:21:33;99462.03;;;10.76;100.00
15382;BME280;7789;51.364;12.358;2024-03-23T12:26:36;99459.03;;;10.89;100.00
15382;BME280;7789;51.364;12.358;2024-03-23T12:31:42;99469.78;;;10.86;100.00
15382;BME280;7789;51.364;12.358;2024-03-23T12:36:45;99470.59;;;11.03;100.00
15382;BME280;7789;51.364;12.358;2024-03-23T12:41:47;99460.91;;;10.96;100.00
15382;BME280;7789;51.364;12.358;2024-03-23T12:46:51;99452.31;;;11.03;99.30
15382;BME280;7789;51.364;12.358;2024-03-23T12:51:55;99444.28;;;11.05;99.07
15382;BME280;7789;51.364;12.358;2024-03-23T12:56:57;99434.03;;;11.11;98.30
15382;BME280;7789;51.364;12.358;2024-03-23T13:02:05;99431.56;;;11.27;97.02
15382;BME280;7789;51.364;12.358;2024-03-23T13:07:08;99426.72;;;11.32;96.23
15382;BME280;7789;51.364;12.358;2024-03-23T13:12:11;99409.09;;;11.42;94.39
15382;BME280;7789;51.364;12.358;2024-03-23T13:17:16;99400.78;;;11.47;92.42
15382;BME280;7789;51.364;12.358;2024-03-23T13:22:19;99401.97;;;11.52;92.50
15382;BME280;7789;51.364;12.358;2024-03-23T13:27:21;99398.50;;;11.52;91.24
15382;BME280;7789;51.364;12.358;2024-03-23T13:32:33;99378.16;;;11.38;87.86
15382;BME280;7789;51.364;12.358;2024-03-23T13:37:36;99394.22;;;11.43;87.00
15382;BME280;7789;51.364;12.358;2024-03-23T13:42:38;99390.47;;;11.71;84.78
15382;BME280;7789;51.364;12.358;2024-03-23T13:47:43;99397.28;;;11.89;82.81
15382;BME280;7789;51.364;12.358;2024-03-23T13:52:45;99399.50;;;11.76;79.98
15382;BME280;7789;51.364;12.358;2024-03-23T13:57:51;99444.81;;;11.51;81.76
15382;BME280;7789;51.364;12.358;2024-03-23T14:02:55;99454.47;;;10.91;86.43
15382;BME280;7789;51.364;12.358;2024-03-23T14:07:57;99443.50;;;10.70;88.53
15382;BME280;7789;51.364;12.358;2024-03-23T14:13:00;99436.03;;;10.75;89.57
15382;BME280;7789;51.364;12.358;2024-03-23T14:18:04;99450.50;;;10.69;90.76
15382;BME280;7789;51.364;12.358;2024-03-23T14:23:06;99443.94;;;10.65;93.28
15382;BME280;7789;51.364;12.358;2024-03-23T14:28:09;99448.78;;;10.60;93.84
15382;BME280;7789;51.364;12.358;2024-03-23T14:33:16;99505.84;;;10.65;95.17
15382;BME280;7789;51.364;12.358;2024-03-23T14:38:19;99514.41;;;10.30;95.76
15382;BME280;7789;51.364;12.358;2024-03-23T14:43:22;99511.63;;;10.05;96.80
15382;BME280;7789;51.364;12.358;2024-03-23T14:48:26;99522.25;;;9.84;97.87
15382;BME280;7789;51.364;12.358;2024-03-23T14:53:28;99530.00;;;9.67;99.47
15382;BME280;7789;51.364;12.358;2024-03-23T14:58:32;99527.44;;;9.38;98.80
15382;BME280;7789;51.364;12.358;2024-03-23T15:03:37;99516.72;;;9.22;99.02
15382;BME280;7789;51.364;12.358;2024-03-23T15:08:40;99517.25;;;9.07;98.80
15382;BME280;7789;51.364;12.358;2024-03-23T15:13:42;99487.09;;;8.95;99.46
15382;BME280;7789;51.364;12.358;2024-03-23T15:18:47;99459.38;;;9.13;100.00
15382;BME280;7789;51.364;12.358;2024-03-23T15:23:51;99446.03;;;9.25;100.00
15382;BME280;7789;51.364;12.358;2024-03-23T15:28:54;99436.88;;;9.21;100.00
15382;BME280;7789;51.364;12.358;2024-03-23T15:34:13;99445.09;;;9.08;100.00
15382;BME280;7789;51.364;12.358;2024-03-23T15:39:15;99450.16;;;9.09;100.00
15382;BME280;7789;51.364;12.358;2024-03-23T15:44:18;99448.00;;;9.05;100.00
15382;BME280;7789;51.364;12.358;2024-03-23T15:49:22;99438.53;;;9.04;100.00
15382;BME280;7789;51.364;12.358;2024-03-23T15:54:24;99442.78;;;9.05;100.00
15382;BME280;7789;51.364;12.358;2024-03-23T15:59:26;99445.50;;;9.03;100.00
15382;BME280;7789;51.364;12.358;2024-03-23T16:04:30;99435.66;;;8.97;100.00
15382;BME280;7789;51.364;12.358;2024-03-23T16:09:33;99428.34;;;9.01;100.00
15382;BME280;7789;51.364;12.358;2024-03-23T16:14:35;99421.94;;;8.95;100.00
15382;BME280;7789;51.364;12.358;2024-03-23T16:19:39;99414.25;;;8.84;100.00
15382;BME280;7789;51.364;12.358;2024-03-23T16:24:42;99427.13;;;8.76;100.00
15382;BME280;7789;51.364;12.358;2024-03-23T16:29:45;99422.47;;;8.70;100.00
15382;BME280;7789;51.364;12.358;2024-03-23T16:39:57;99419.31;;;8.57;100.00
15382;BME280;7789;51.364;12.358;2024-03-23T16:44:59;99421.63;;;8.51;100.00
15382;BME280;7789;51.364;12.358;2024-03-23T16:50:02;99418.50;;;8.47;100.00
15382;BME280;7789;51.364;12.358;2024-03-23T16:55:07;99422.59;;;8.40;100.00
15382;BME280;7789;51.364;12.358;2024-03-23T17:00:12;99416.84;;;8.37;100.00
15382;BME280;7789;51.364;12.358;2024-03-23T17:05:15;99427.56;;;8.43;100.00
15382;BME280;7789;51.364;12.358;2024-03-23T17:10:23;99437.69;;;8.56;100.00
15382;BME280;7789;51.364;12.358;2024-03-23T17:15:25;99456.75;;;8.56;100.00
15382;BME280;7789;51.364;12.358;2024-03-23T17:20:27;99461.53;;;8.42;100.00
15382;BME280;7789;51.364;12.358;2024-03-23T17:25:31;99448.75;;;8.20;100.00
15382;BME280;7789;51.364;12.358;2024-03-23T17:30:41;99459.59;;;8.04;100.00
15382;BME280;7789;51.364;12.358;2024-03-23T17:35:44;99455.22;;;8.05;100.00
15382;BME280;7789;51.364;12.358;2024-03-23T17:40:58;99445.47;;;7.97;100.00
15382;BME280;7789;51.364;12.358;2024-03-23T17:46:01;99448.13;;;7.77;100.00
15382;BME280;7789;51.364;12.358;2024-03-23T17:51:04;99467.78;;;7.60;100.00
15382;BME280;7789;51.364;12.358;2024-03-23T17:56:08;99471.66;;;7.45;100.00
15382;BME280;7789;51.364;12.358;2024-03-23T18:01:11;99491.44;;;7.37;100.00
15382;BME280;7789;51.364;12.358;2024-03-23T18:06:14;99483.13;;;7.22;100.00
15382;BME280;7789;51.364;12.358;2024-03-23T18:11:17;99496.44;;;7.09;100.00
15382;BME280;7789;51.364;12.358;2024-03-23T18:16:24;99485.38;;;6.96;100.00
15382;BME280;7789;51.364;12.358;2024-03-23T18:21:30;99485.91;;;6.90;100.00
15382;BME280;7789;51.364;12.358;2024-03-23T18:26:34;99486.53;;;6.82;100.00
15382;BME280;7789;51.364;12.358;2024-03-23T18:31:40;99479.34;;;6.75;100.00
15382;BME280;7789;51.364;12.358;2024-03-23T18:36:43;99479.97;;;6.67;100.00
15382;BME280;7789;51.364;12.358;2024-03-23T18:41:51;99481.75;;;6.56;100.00
15382;BME280;7789;51.364;12.358;2024-03-23T18:46:55;99473.75;;;6.48;100.00
15382;BME280;7789;51.364;12.358;2024-03-23T18:51:58;99485.56;;;6.41;100.00
15382;BME280;7789;51.364;12.358;2024-03-23T18:57:03;99483.34;;;6.36;100.00
15382;BME280;7789;51.364;12.358;2024-03-23T19:02:06;99486.53;;;6.29;100.00
15382;BME280;7789;51.364;12.358;2024-03-23T19:07:14;99474.84;;;6.23;100.00
15382;BME280;7789;51.364;12.358;2024-03-23T19:12:29;99478.06;;;6.16;100.00
15382;BME280;7789;51.364;12.358;2024-03-23T19:17:32;99468.97;;;6.10;100.00
15382;BME280;7789;51.364;12.358;2024-03-23T19:22:36;99476.41;;;6.15;100.00
15382;BME280;7789;51.364;12.358;2024-03-23T19:27:40;99477.31;;;6.36;100.00
15382;BME280;7789;51.364;12.358;2024-03-23T19:32:46;99480.47;;;6.50;100.00
15382;BME280;7789;51.364;12.358;2024-03-23T19:37:55;99491.75;;;6.60;100.00
15382;BME280;7789;51.364;12.358;2024-03-23T19:43:06;99515.47;;;6.67;100.00
15382;BME280;7789;51.364;12.358;2024-03-23T19:48:09;99513.56;;;6.69;100.00
15382;BME280;7789;51.364;12.358;2024-03-23T19:53:11;99509.56;;;6.76;100.00
15382;BME280;7789;51.364;12.358;2024-03-23T19:58:15;99496.44;;;6.77;100.00
15382;BME280;7789;51.364;12.358;2024-03-23T20:03:18;99506.19;;;6.85;100.00
15382;BME280;7789;51.364;12.358;2024-03-23T20:08:21;99492.84;;;6.89;100.00
15382;BME280;7789;51.364;12.358;2024-03-23T20:13:29;99488.25;;;6.93;100.00
15382;BME280;7789;51.364;12.358;2024-03-23T20:18:35;99467.22;;;6.96;100.00
15382;BME280;7789;51.364;12.358;2024-03-23T20:23:38;99474.41;;;6.92;100.00
15382;BME280;7789;51.364;12.358;2024-03-23T20:34:20;99472.31;;;6.86;100.00
15382;BME280;7789;51.364;12.358;2024-03-23T20:39:25;99471.50;;;6.86;100.00
15382;BME280;7789;51.364;12.358;2024-03-23T20:44:37;99469.84;;;6.85;100.00
15382;BME280;7789;51.364;12.358;2024-03-23T20:49:40;99474.47;;;6.81;100.00
15382;BME280;7789;51.364;12.358;2024-03-23T20:54:42;99474.47;;;6.81;100.00
15382;BME280;7789;51.364;12.358;2024-03-23T20:59:46;99477.53;;;6.86;100.00
15382;BME280;7789;51.364;12.358;2024-03-23T21:04:48;99474.31;;;6.94;100.00
15382;BME280;7789;51.364;12.358;2024-03-23T21:09:51;99463.22;;;6.92;100.00
15382;BME280;7789;51.364;12.358;2024-03-23T21:14:55;99469.84;;;6.85;100.00
15382;BME280;7789;51.364;12.358;2024-03-23T21:19:57;99462.47;;;6.69;100.00
15382;BME280;7789;51.364;12.358;2024-03-23T21:25:00;99464.28;;;6.58;100.00
15382;BME280;7789;51.364;12.358;2024-03-23T21:30:05;99465.72;;;6.51;100.00
15382;BME280;7789;51.364;12.358;2024-03-23T21:35:09;99449.00;;;6.44;100.00
15382;BME280;7789;51.364;12.358;2024-03-23T21:40:11;99445.94;;;6.39;100.00
15382;BME280;7789;51.364;12.358;2024-03-23T21:45:18;99434.13;;;6.35;100.00
15382;BME280;7789;51.364;12.358;2024-03-23T21:50:22;99439.47;;;6.33;100.00
15382;BME280;7789;51.364;12.358;2024-03-23T21:55:28;99435.44;;;6.29;100.00
15382;BME280;7789;51.364;12.358;2024-03-23T22:00:32;99422.25;;;6.21;100.00
15382;BME280;7789;51.364;12.358;2024-03-23T22:05:35;99421.22;;;6.13;100.00
15382;BME280;7789;51.364;12.358;2024-03-23T22:10:39;99412.28;;;6.06;100.00
15382;BME280;7789;51.364;12.358;2024-03-23T22:15:45;99403.22;;;6.00;100.00
15382;BME280;7789;51.364;12.358;2024-03-23T22:20:54;99395.09;;;5.94;100.00
15382;BME280;7789;51.364;12.358;2024-03-23T22:25:57;99400.03;;;5.86;100.00
15382;BME280;7789;51.364;12.358;2024-03-23T22:31:04;99404.91;;;5.79;100.00
15382;BME280;7789;51.364;12.358;2024-03-23T22:36:07;99406.88;;;5.76;100.00
15382;BME280;7789;51.364;12.358;2024-03-23T22:41:10;99413.00;;;5.75;100.00
15382;BME280;7789;51.364;12.358;2024-03-23T22:46:15;99404.03;;;5.68;100.00
15382;BME280;7789;51.364;12.358;2024-03-23T22:51:18;99402.75;;;5.62;100.00
15382;BME280;7789;51.364;12.358;2024-03-23T22:56:22;99396.13;;;5.58;100.00
15382;BME280;7789;51.364;12.358;2024-03-23T23:01:31;99404.16;;;5.55;100.00
15382;BME280;7789;51.364;12.358;2024-03-23T23:06:34;99397.91;;;5.47;100.00
15382;BME280;7789;51.364;12.358;2024-03-23T23:11:37;99405.81;;;5.45;100.00
15382;BME280;7789;51.364;12.358;2024-03-23T23:16:45;99394.16;;;5.40;100.00
15382;BME280;7789;51.364;12.358;2024-03-23T23:21:48;99380.59;;;5.37;100.00
15382;BME280;7789;51.364;12.358;2024-03-23T23:26:50;99378.47;;;5.31;100.00
15382;BME280;7789;51.364;12.358;2024-03-23T23:31:55;99374.34;;;5.28;100.00
15382;BME280;7789;51.364;12.358;2024-03-23T23:36:59;99383.31;;;5.24;100.00
15382;BME280;7789;51.364;12.358;2024-03-23T23:42:01;99378.34;;;5.21;100.00
15382;BME280;7789;51.364;12.358;2024-03-23T23:47:06;99365.03;;;5.15;100.00
15382;BME280;7789;51.364;12.358;2024-03-23T23:52:11;99360.09;;;5.12;100.00
15382;BME280;7789;51.364;12.358;2024-03-23T23:57:14;99362.09;;;5.08;100.00
